TMG6012 WAWW-WALL
Flight info
| Callsign | TMG6012 |
|---|---|
| Flight time | N/A |
| Altitude | 39000 |
| Route | LEKEX W54 MKS W37 BPN |
| Aircraft | B738/M-SDFGHIRWY/EB2 |
Departure
| Time | 2026-04-25 01:32 |
|---|---|
| Airport | Haluoleo Airport (WAWW) |
Arrival
| Time | N/A |
|---|---|
| Airport | Sultan Aji Muhammad Sulaiman Sepinggan International Airport (WALL) |
| Time | Latitude | Longitude | Altitude | Speed | Heading |
|---|---|---|---|---|---|
| 2026-04-25 01:12 | -4.07780 | 122.41821 | 167 ft | 0 kts | 351° |
| 2026-04-25 01:23 | -4.07788 | 122.41822 | 167 ft | 3 kts | 349° |
| 2026-04-25 01:23 | -4.07808 | 122.41826 | 167 ft | 2 kts | 349° |
| 2026-04-25 01:23 | -4.07824 | 122.41829 | 167 ft | 3 kts | 332° |
| 2026-04-25 01:23 | -4.07836 | 122.41840 | 167 ft | 3 kts | 283° |
| 2026-04-25 01:24 | -4.07837 | 122.41859 | 167 ft | 2 kts | 260° |
| 2026-04-25 01:24 | -4.07836 | 122.41867 | 167 ft | 1 kts | 259° |
| 2026-04-25 01:24 | -4.07835 | 122.41868 | 167 ft | 0 kts | 259° |
| 2026-04-25 01:26 | -4.07838 | 122.41855 | 167 ft | 7 kts | 259° |
| 2026-04-25 01:26 | -4.07856 | 122.41758 | 167 ft | 16 kts | 259° |
| 2026-04-25 01:26 | -4.07924 | 122.41693 | 167 ft | 16 kts | 173° |
| 2026-04-25 01:27 | -4.08030 | 122.41712 | 167 ft | 15 kts | 169° |
| 2026-04-25 01:27 | -4.08130 | 122.41730 | 166 ft | 15 kts | 169° |
| 2026-04-25 01:27 | -4.08191 | 122.41735 | 166 ft | 1 kts | 216° |
| 2026-04-25 01:28 | -4.08215 | 122.41652 | 166 ft | 15 kts | 257° |
| 2026-04-25 01:28 | -4.08240 | 122.41546 | 166 ft | 15 kts | 256° |
| 2026-04-25 01:28 | -4.08260 | 122.41444 | 165 ft | 15 kts | 259° |
| 2026-04-25 01:28 | -4.08278 | 122.41345 | 166 ft | 14 kts | 259° |
| 2026-04-25 01:29 | -4.08295 | 122.41251 | 167 ft | 13 kts | 259° |
| 2026-04-25 01:29 | -4.08312 | 122.41159 | 167 ft | 14 kts | 260° |
| 2026-04-25 01:29 | -4.08329 | 122.41043 | 167 ft | 18 kts | 263° |
| 2026-04-25 01:29 | -4.08344 | 122.40960 | 168 ft | 7 kts | 246° |
| 2026-04-25 01:30 | -4.08368 | 122.40917 | 168 ft | 7 kts | 241° |
| 2026-04-25 01:30 | -4.08366 | 122.40880 | 169 ft | 5 kts | 333° |
| 2026-04-25 01:30 | -4.08347 | 122.40901 | 167 ft | 4 kts | 84° |
| 2026-04-25 01:30 | -4.08346 | 122.40904 | 168 ft | 0 kts | 81° |
| 2026-04-25 01:31 | -4.08341 | 122.40938 | 168 ft | 23 kts | 81° |
| 2026-04-25 01:31 | -4.08267 | 122.41339 | 166 ft | 92 kts | 80° |
| 2026-04-25 01:31 | -4.08115 | 122.42177 | 169 ft | 149 kts | 79° |
| 2026-04-25 01:31 | -4.07896 | 122.43349 | 327 ft | 185 kts | 80° |
| 2026-04-25 01:32 | -4.07709 | 122.44589 | 1186 ft | 175 kts | 81° |
| 2026-04-25 01:32 | -4.07621 | 122.45786 | 2066 ft | 180 kts | 100° |
| 2026-04-25 01:32 | -4.08328 | 122.46886 | 2496 ft | 209 kts | 147° |
| 2026-04-25 01:32 | -4.09771 | 122.47168 | 2924 ft | 220 kts | 187° |
| 2026-04-25 01:33 | -4.11194 | 122.46522 | 3363 ft | 234 kts | 222° |
| 2026-04-25 01:33 | -4.12103 | 122.45156 | 3920 ft | 241 kts | 253° |
| 2026-04-25 01:33 | -4.12325 | 122.43458 | 4321 ft | 260 kts | 268° |
| 2026-04-25 01:33 | -4.12507 | 122.41598 | 4898 ft | 271 kts | 262° |
| 2026-04-25 01:34 | -4.12867 | 122.39753 | 5809 ft | 268 kts | 255° |
| 2026-04-25 01:34 | -4.13434 | 122.37963 | 6539 ft | 272 kts | 252° |
| 2026-04-25 01:34 | -4.14005 | 122.36119 | 7072 ft | 283 kts | 254° |
| 2026-04-25 01:34 | -4.14525 | 122.34174 | 7630 ft | 292 kts | 255° |
| 2026-04-25 01:35 | -4.15025 | 122.32209 | 8295 ft | 297 kts | 256° |
| 2026-04-25 01:35 | -4.15540 | 122.30192 | 9011 ft | 300 kts | 255° |
| 2026-04-25 01:35 | -4.16069 | 122.28146 | 9764 ft | 303 kts | 255° |
| 2026-04-25 01:35 | -4.16609 | 122.26079 | 10375 ft | 310 kts | 255° |
| 2026-04-25 01:36 | -4.17179 | 122.23915 | 10576 ft | 331 kts | 255° |
| 2026-04-25 01:36 | -4.17771 | 122.21668 | 11014 ft | 341 kts | 255° |
| 2026-04-25 01:36 | -4.18383 | 122.19355 | 11630 ft | 344 kts | 255° |
| 2026-04-25 01:36 | -4.18998 | 122.17041 | 12246 ft | 349 kts | 255° |
| 2026-04-25 01:37 | -4.19630 | 122.14675 | 12809 ft | 354 kts | 255° |
| 2026-04-25 01:37 | -4.20271 | 122.12270 | 13428 ft | 357 kts | 255° |
| 2026-04-25 01:37 | -4.20917 | 122.09853 | 14067 ft | 359 kts | 255° |
| 2026-04-25 01:37 | -4.21556 | 122.07459 | 14607 ft | 362 kts | 255° |
| 2026-04-25 01:38 | -4.22214 | 122.04992 | 15126 ft | 366 kts | 255° |
| 2026-04-25 01:38 | -4.22871 | 122.02531 | 15783 ft | 365 kts | 255° |
| 2026-04-25 01:38 | -4.23527 | 122.00071 | 16367 ft | 366 kts | 255° |
| 2026-04-25 01:38 | -4.24184 | 121.97611 | 16867 ft | 371 kts | 255° |
| 2026-04-25 01:39 | -4.24855 | 121.95095 | 17275 ft | 377 kts | 255° |
| 2026-04-25 01:39 | -4.25537 | 121.92539 | 17885 ft | 378 kts | 255° |
| 2026-04-25 01:39 | -4.26228 | 121.89991 | 18407 ft | 380 kts | 253° |
| 2026-04-25 01:39 | -4.27011 | 121.87450 | 18819 ft | 384 kts | 251° |
| 2026-04-25 01:40 | -4.27850 | 121.84907 | 19250 ft | 386 kts | 251° |
| 2026-04-25 01:40 | -4.28715 | 121.82339 | 19727 ft | 387 kts | 251° |
| 2026-04-25 01:40 | -4.29569 | 121.79800 | 20140 ft | 391 kts | 251° |
| 2026-04-25 01:40 | -4.30442 | 121.77193 | 20483 ft | 396 kts | 251° |
| 2026-04-25 01:41 | -4.31316 | 121.74569 | 20914 ft | 398 kts | 251° |
| 2026-04-25 01:41 | -4.32194 | 121.71919 | 21362 ft | 400 kts | 251° |
| 2026-04-25 01:41 | -4.33063 | 121.69282 | 21702 ft | 405 kts | 251° |
| 2026-04-25 01:41 | -4.33949 | 121.66590 | 22085 ft | 407 kts | 251° |
| 2026-04-25 01:42 | -4.34835 | 121.63890 | 22557 ft | 408 kts | 251° |
| 2026-04-25 01:42 | -4.35720 | 121.61194 | 23029 ft | 408 kts | 251° |
| 2026-04-25 01:42 | -4.36615 | 121.58464 | 23384 ft | 412 kts | 251° |
| 2026-04-25 01:42 | -4.37511 | 121.55734 | 23770 ft | 413 kts | 251° |
| 2026-04-25 01:43 | -4.38410 | 121.52992 | 24083 ft | 415 kts | 251° |
| 2026-04-25 01:43 | -4.39314 | 121.50233 | 24383 ft | 418 kts | 251° |
| 2026-04-25 01:43 | -4.40223 | 121.47462 | 24673 ft | 420 kts | 251° |
| 2026-04-25 01:43 | -4.41129 | 121.44699 | 24968 ft | 423 kts | 251° |
| 2026-04-25 01:44 | -4.42051 | 121.41885 | 25254 ft | 425 kts | 251° |
| 2026-04-25 01:44 | -4.42980 | 121.39052 | 25532 ft | 428 kts | 251° |
| 2026-04-25 01:44 | -4.43910 | 121.36213 | 25829 ft | 430 kts | 251° |
| 2026-04-25 01:44 | -4.44838 | 121.33383 | 26121 ft | 432 kts | 251° |
| 2026-04-25 01:45 | -4.45777 | 121.30514 | 26414 ft | 434 kts | 251° |
| 2026-04-25 01:45 | -4.46720 | 121.27636 | 26681 ft | 436 kts | 251° |
| 2026-04-25 01:45 | -4.47671 | 121.24732 | 26950 ft | 439 kts | 251° |
| 2026-04-25 01:45 | -4.48624 | 121.21822 | 27228 ft | 441 kts | 251° |
| 2026-04-25 01:46 | -4.49584 | 121.18889 | 27520 ft | 442 kts | 251° |
| 2026-04-25 01:46 | -4.50535 | 121.15987 | 27790 ft | 444 kts | 251° |
| 2026-04-25 01:46 | -4.51497 | 121.13048 | 28075 ft | 445 kts | 251° |
| 2026-04-25 01:46 | -4.52464 | 121.10093 | 28360 ft | 447 kts | 251° |
| 2026-04-25 01:47 | -4.53436 | 121.07122 | 28634 ft | 449 kts | 251° |
| 2026-04-25 01:47 | -4.54412 | 121.04138 | 28856 ft | 451 kts | 251° |
| 2026-04-25 01:47 | -4.55395 | 121.01136 | 29098 ft | 453 kts | 251° |
| 2026-04-25 01:47 | -4.56381 | 120.98119 | 29342 ft | 455 kts | 251° |
| 2026-04-25 01:48 | -4.57370 | 120.95096 | 29568 ft | 458 kts | 251° |
| 2026-04-25 01:48 | -4.58365 | 120.92053 | 29807 ft | 459 kts | 251° |
| 2026-04-25 01:48 | -4.59360 | 120.89009 | 30045 ft | 461 kts | 252° |
| 2026-04-25 01:48 | -4.60363 | 120.85942 | 30241 ft | 462 kts | 251° |
| 2026-04-25 01:49 | -4.61354 | 120.82909 | 30424 ft | 464 kts | 251° |
| 2026-04-25 01:49 | -4.62361 | 120.79828 | 30610 ft | 466 kts | 251° |
| 2026-04-25 01:49 | -4.63371 | 120.76737 | 30812 ft | 467 kts | 251° |
| 2026-04-25 01:49 | -4.64387 | 120.73627 | 31008 ft | 469 kts | 251° |
| 2026-04-25 01:50 | -4.65405 | 120.70511 | 31186 ft | 470 kts | 251° |
| 2026-04-25 01:50 | -4.66424 | 120.67389 | 31355 ft | 472 kts | 251° |
| 2026-04-25 01:50 | -4.67446 | 120.64259 | 31518 ft | 474 kts | 251° |
| 2026-04-25 01:50 | -4.68463 | 120.61145 | 31679 ft | 476 kts | 251° |
| 2026-04-25 01:51 | -4.69495 | 120.57982 | 31810 ft | 478 kts | 251° |
| 2026-04-25 01:51 | -4.70535 | 120.54795 | 31952 ft | 480 kts | 251° |
| 2026-04-25 01:51 | -4.71576 | 120.51606 | 32136 ft | 481 kts | 251° |
| 2026-04-25 01:51 | -4.72616 | 120.48417 | 32346 ft | 481 kts | 251° |
| 2026-04-25 01:52 | -4.73647 | 120.45257 | 32514 ft | 482 kts | 251° |
| 2026-04-25 01:52 | -4.74353 | 120.43091 | 32594 ft | 484 kts | 251° |